METAR Data
IDs: Format: Raw Decoded Include TAF

Data at: 2135 UTC 01 Dec 2021

KLAR 012053Z AUTO 26024G30KT 10SM CLR 14/M05 A3024 RMK AO2 PK WND 26030/2053 SLP181 T01391050 56003